Aérodrome :
LOGIN :

S'inscrire | Disclaimer

   EN    FR    IT 

 










Légende :    VFR   VFR Marginal   IFR   IFR Intensif   IFR Très Intensif
Visi : 
Plafond : 
>= 8 km
>= 3000ft
5 à 8 km
1000 à 3000 ft
1500m à 5 km
500 à 1000 ft
800 à 1500m
200 à 500 ft
< 800m
< 200 ft
Symboles :   Orages  Brouillard  Fortes neiges  Fortes précipitations  Vent > 20 kt
SIGMETs :   Divers  Orages  Givrage  Turbulence  Onde Orograph.  Cendres Volcan.






- Altitude de l'aérodrome : 131 ft
- Code IATA : TLL


EETN - Talinn

DERNIER METAR :
  • 230120Z 14007KT CAVOK M01/M08 Q1028 R08/19//95

METARs EXPIRÉS :
  • 230050Z 14006KT CAVOK M01/M07 Q1028 R08/19//95
  • 230020Z 14006KT CAVOK M01/M07 Q1029 R08/19//95
  • 222350Z 14005KT CAVOK M01/M06 Q1029 R08/19//95
  • 222320Z 14006KT 9999 -SN NSC M01/M06 Q1029 R08/19//95
  • 222250Z 14005KT 110V170 CAVOK M01/M05 Q1029 R08/19//95

TAF TAF EETN
Valide du 23 à 00h jusqu'au 24 à 00h UTC


222307Z 2300/2324 15008KT 9999 BKN025



MET'MAP, la Météo Aéronautique d'un coup d'oeil ! - Copyright ORBIFLY Décembre 2007 - Disclaimer

ORBIFLY MET'MAP TEAM :

Programmation & Développement : Alexandra Zaïnal
Conception & Développement : Baudouin d'Aumeries
Co-Programmation & Développement : Marc-Olivier Méhu
Soutien technique & logistique : Manuel Goepfert

Contact : metmap@orbifly.com




SOURCES & CREDITS :

   NOAA